Time;durP1;ratioP1;P1;durP2;ratioP2;P2;SDS_P1;SDS_P2;PMS_P1;PMS_P2;Temp;Humidity;BMP_temperature;BMP_pressure;BME280_temperature;BME280_humidity;BME280_pressure;Samples;Min_cycle;Max_cycle;Signal;HPM_P1;HPM_P2
2021/06/29 00:00:47;;;;;;;8.20;2.30;;;;;;;16.69;100.00;99851.28;4996667;28;20058;-71
2021/06/29 00:03:17;;;;;;;28.10;4.47;;;;;;;16.73;100.00;99842.94;4998085;28;20440;-71
2021/06/29 00:05:46;;;;;;;4.82;2.35;;;;;;;16.94;100.00;99851.72;4997864;28;20108;-71
2021/06/29 00:08:13;;;;;;;1.83;1.40;;;;;;;16.93;100.00;99832.97;4997544;28;20072;-71
2021/06/29 00:10:40;;;;;;;2.63;1.55;;;;;;;17.07;100.00;99831.72;4997447;28;20494;-71
2021/06/29 00:13:07;;;;;;;3.13;1.80;;;;;;;17.19;100.00;99830.59;4997743;28;20106;-69
2021/06/29 00:15:34;;;;;;;5.03;1.75;;;;;;;17.28;100.00;99825.31;4983168;28;20089;-70
2021/06/29 00:18:01;;;;;;;5.80;1.75;;;;;;;17.32;100.00;99832.13;4976942;28;20474;-71
2021/06/29 00:20:28;;;;;;;4.53;2.00;;;;;;;17.39;100.00;99811.66;4988550;28;20152;-71
2021/06/29 00:22:55;;;;;;;4.10;2.05;;;;;;;17.47;100.00;99819.00;4997654;28;20057;-71
2021/06/29 00:25:22;;;;;;;5.85;2.35;;;;;;;17.51;100.00;99817.72;4997161;28;20097;-70
2021/06/29 00:27:49;;;;;;;4.38;2.50;;;;;;;17.56;100.00;99814.56;4996244;28;20112;-72
2021/06/29 00:30:16;;;;;;;4.15;2.38;;;;;;;17.45;100.00;99802.97;4997169;28;20050;-69
2021/06/29 00:32:43;;;;;;;2.95;2.05;;;;;;;17.50;100.00;99780.94;4997124;28;20058;-69
2021/06/29 00:35:11;;;;;;;5.00;2.30;;;;;;;17.63;100.00;99776.06;4996305;28;20197;-70
2021/06/29 00:37:38;;;;;;;4.43;2.40;;;;;;;17.69;100.00;99761.09;4997295;28;20054;-71
2021/06/29 00:40:07;;;;;;;3.75;2.38;;;;;;;17.65;100.00;99757.84;4996949;28;20396;-70
2021/06/29 00:42:34;;;;;;;3.75;2.38;;;;;;;17.63;100.00;99754.47;4997013;28;20054;-69
2021/06/29 00:45:05;;;;;;;4.55;2.80;;;;;;;17.64;100.00;99753.47;4996114;28;20129;-70
2021/06/29 00:47:32;;;;;;;2.92;2.50;;;;;;;17.71;100.00;99756.41;4997286;28;20062;-71
2021/06/29 00:49:59;;;;;;;2.97;2.60;;;;;;;17.69;100.00;99763.81;4997066;28;20054;-71
2021/06/29 00:52:28;;;;;;;4.20;2.67;;;;;;;17.69;100.00;99769.19;4997204;28;20325;-72
2021/06/29 00:54:55;;;;;;;3.58;2.67;;;;;;;17.64;100.00;99782.28;4997099;28;20108;-72
2021/06/29 00:57:22;;;;;;;6.88;2.72;;;;;;;17.54;100.00;99784.19;4996832;28;20062;-72
2021/06/29 00:59:48;;;;;;;5.30;2.55;;;;;;;17.49;100.00;99779.25;4996917;28;20093;-71
2021/06/29 01:02:15;;;;;;;3.63;2.72;;;;;;;17.51;100.00;99783.50;4996974;28;20376;-72
2021/06/29 01:04:45;;;;;;;5.25;2.83;;;;;;;17.39;100.00;99781.97;4996507;28;20050;-70
2021/06/29 01:07:13;;;;;;;5.73;2.60;;;;;;;17.39;100.00;99787.38;4996646;28;20510;-72
2021/06/29 01:09:40;;;;;;;3.80;2.40;;;;;;;17.37;100.00;99789.34;4996370;28;20105;-72
2021/06/29 01:12:08;;;;;;;5.45;2.00;;;;;;;17.34;100.00;99776.16;4996400;28;20178;-71
2021/06/29 01:14:35;;;;;;;4.60;1.90;;;;;;;17.28;100.00;99776.75;4996686;28;20058;-73
2021/06/29 01:17:05;;;;;;;2.90;1.70;;;;;;;17.19;100.00;99767.69;4995562;28;20133;-71
2021/06/29 01:19:53;;;;;;;2.35;1.90;;;;;;;17.16;100.00;99758.03;4993531;28;20046;-72
2021/06/29 01:22:21;;;;;;;3.05;1.50;;;;;;;17.16;100.00;99762.59;4977038;28;20421;-72
2021/06/29 01:24:53;;;;;;;4.78;1.70;;;;;;;17.09;100.00;99749.72;4976714;28;20070;-72
2021/06/29 01:27:32;;;;;;;2.60;1.40;;;;;;;17.12;100.00;99753.97;4976853;28;20055;-71
2021/06/29 01:32:27;;;;;;;4.38;1.50;;;;;;;17.05;100.00;99760.94;4976963;28;20047;-72
2021/06/29 01:34:54;;;;;;;4.40;1.60;;;;;;;16.94;100.00;99745.75;4976630;28;20050;-72
2021/06/29 01:37:21;;;;;;;2.22;1.65;;;;;;;16.89;100.00;99765.03;4976154;28;20400;-72
2021/06/29 01:40:03;;;;;;;2.58;1.40;;;;;;;16.92;100.00;99758.50;4976585;28;20086;-72
2021/06/29 01:42:30;;;;;;;2.38;1.27;;;;;;;16.83;100.00;99753.00;4976734;28;20408;-71
2021/06/29 01:44:59;;;;;;;2.33;1.48;;;;;;;16.78;100.00;99744.47;4976785;28;20109;-73
2021/06/29 01:47:31;;;;;;;1.48;1.38;;;;;;;16.75;100.00;99743.91;4975541;28;20058;-72
2021/06/29 01:50:10;;;;;;;5.07;1.90;;;;;;;16.86;100.00;99742.91;4979629;28;20433;-71
2021/06/29 01:52:38;;;;;;;4.60;1.80;;;;;;;16.81;100.00;99749.59;4978216;28;20054;-72
2021/06/29 01:55:06;;;;;;;2.67;1.63;;;;;;;16.87;100.00;99753.56;4976586;28;20399;-72
2021/06/29 01:57:33;;;;;;;6.32;1.80;;;;;;;16.81;100.00;99749.59;4976359;28;20384;-71
2021/06/29 01:59:59;;;;;;;3.42;2.30;;;;;;;16.81;100.00;99733.44;4976583;28;20054;-72
2021/06/29 02:02:26;;;;;;;2.75;1.80;;;;;;;16.83;100.00;99738.66;4976420;28;20055;-71
2021/06/29 02:04:53;;;;;;;2.20;2.00;;;;;;;16.85;100.00;99750.16;4976543;28;20058;-70
2021/06/29 02:07:19;;;;;;;4.68;2.55;;;;;;;16.83;100.00;99739.53;4976105;28;20101;-71
2021/06/29 02:09:46;;;;;;;2.35;2.15;;;;;;;16.83;100.00;99738.66;4976137;28;20047;-71
2021/06/29 02:12:13;;;;;;;4.55;2.08;;;;;;;16.77;100.00;99740.09;4976439;28;20101;-71
2021/06/29 02:14:39;;;;;;;2.55;2.15;;;;;;;16.78;100.00;99749.03;4976158;28;20050;-71
2021/06/29 02:17:06;;;;;;;2.75;2.17;;;;;;;16.68;100.00;99741.81;4975267;28;20086;-69
2021/06/29 02:19:33;;;;;;;4.22;2.30;;;;;;;16.66;100.00;99733.03;4979083;28;20133;-71
2021/06/29 02:22:00;;;;;;;3.75;2.10;;;;;;;16.65;100.00;99733.16;4995444;28;20428;-70
2021/06/29 02:24:27;;;;;;;4.07;2.15;;;;;;;16.64;100.00;99737.72;4995764;28;20061;-70
2021/06/29 02:26:54;;;;;;;2.65;2.30;;;;;;;16.58;100.00;99730.19;4995531;28;20109;-70
2021/06/29 02:29:20;;;;;;;3.30;2.47;;;;;;;16.66;100.00;99737.56;4995361;28;20437;-71
2021/06/29 02:31:47;;;;;;;4.10;2.25;;;;;;;16.61;100.00;99734.47;4995376;28;20050;-71
2021/06/29 02:34:13;;;;;;;3.20;2.10;;;;;;;16.61;100.00;99737.16;4996104;28;20329;-70
2021/06/29 02:36:40;;;;;;;2.60;2.30;;;;;;;16.43;100.00;99713.63;4994896;28;20109;-71
2021/06/29 02:39:07;;;;;;;3.53;1.92;;;;;;;16.49;100.00;99733.72;4995507;28;20046;-71
2021/06/29 02:41:36;;;;;;;3.22;2.08;;;;;;;16.46;100.00;99729.50;4995267;28;20384;-71
2021/06/29 02:44:03;;;;;;;5.38;2.60;;;;;;;16.56;100.00;99727.66;4994211;28;20356;-71
2021/06/29 02:46:30;;;;;;;2.40;2.20;;;;;;;16.49;100.00;99729.22;4995537;28;20121;-70
2021/06/29 02:48:57;;;;;;;2.25;2.05;;;;;;;16.47;100.00;99733.03;4996924;28;20416;-71
2021/06/29 02:51:24;;;;;;;3.63;2.53;;;;;;;16.46;100.00;99737.59;4999172;28;20097;-71
2021/06/29 02:53:50;;;;;;;2.80;2.60;;;;;;;16.48;100.00;99743.69;4999388;28;20050;-71
2021/06/29 02:59:10;;;;;;;3.47;2.25;;;;;;;16.46;100.00;99744.81;4998380;28;20061;-71
2021/06/29 03:01:37;;;;;;;4.57;2.17;;;;;;;16.37;100.00;99733.03;4999190;28;20156;-71
2021/06/29 03:04:05;;;;;;;3.42;2.45;;;;;;;16.45;100.00;99753.88;4997849;28;20085;-71
2021/06/29 03:06:32;;;;;;;4.38;2.30;;;;;;;16.40;100.00;99757.00;4998509;28;20403;-70
2021/06/29 03:08:59;;;;;;;3.63;2.30;;;;;;;16.39;100.00;99755.28;4999014;28;20054;-71
2021/06/29 03:11:27;;;;;;;3.17;2.88;;;;;;;16.39;100.00;99752.59;4998795;28;20073;-70
2021/06/29 03:13:54;;;;;;;4.35;2.47;;;;;;;16.40;100.00;99749.75;4998919;28;20113;-70
2021/06/29 03:16:20;;;;;;;3.45;3.08;;;;;;;16.35;100.00;99732.34;4998840;28;20050;-69
2021/06/29 03:18:47;;;;;;;3.80;2.75;;;;;;;16.32;100.00;99736.16;4998512;28;20053;-70
2021/06/29 03:21:14;;;;;;;4.28;2.83;;;;;;;16.27;100.00;99727.66;4982152;28;20051;-69
2021/06/29 03:23:40;;;;;;;5.03;2.78;;;;;;;16.25;100.00;99732.34;4979369;28;20070;-72
2021/06/29 03:26:07;;;;;;;4.47;3.08;;;;;;;16.21;100.00;99742.53;4979135;28;20046;-70
2021/06/29 03:28:34;;;;;;;3.17;2.95;;;;;;;16.25;100.00;99738.56;4979101;28;20326;-71
2021/06/29 03:31:01;;;;;;;3.25;2.88;;;;;;;16.14;100.00;99734.16;4978851;28;20093;-72
2021/06/29 03:33:28;;;;;;;4.28;2.92;;;;;;;16.14;100.00;99742.25;4979089;28;20055;-69
2021/06/29 03:35:55;;;;;;;3.92;2.92;;;;;;;16.14;100.00;99747.63;4979145;28;20054;-70
2021/06/29 03:38:21;;;;;;;3.20;2.90;;;;;;;16.12;100.00;99752.31;4979032;28;20284;-71
2021/06/29 03:40:48;;;;;;;4.88;3.33;;;;;;;16.12;100.00;99759.56;4978772;28;20504;-70
2021/06/29 03:43:15;;;;;;;3.78;3.42;;;;;;;16.14;100.00;99768.31;4977562;28;20051;-70
2021/06/29 03:45:41;;;;;;;5.72;3.40;;;;;;;16.17;100.00;99762.66;4978720;28;20050;-71
2021/06/29 03:48:08;;;;;;;5.15;3.95;;;;;;;16.15;100.00;99762.81;4978534;28;20133;-70
2021/06/29 03:50:35;;;;;;;4.00;3.10;;;;;;;16.09;100.00;99766.06;4978366;28;20117;-70
2021/06/29 03:53:02;;;;;;;4.47;4.07;;;;;;;16.07;100.00;99759.09;4978737;28;20054;-69
2021/06/29 03:55:29;;;;;;;5.13;4.20;;;;;;;16.14;100.00;99746.78;4977690;28;20051;-69
2021/06/29 03:57:56;;;;;;;7.82;4.00;;;;;;;16.11;100.00;99745.22;4977286;28;20433;-71
2021/06/29 04:00:23;;;;;;;5.75;3.50;;;;;;;16.14;100.00;99752.16;4978448;28;20050;-70
2021/06/29 04:02:50;;;;;;;3.83;3.53;;;;;;;16.15;100.00;99756.56;4977767;28;20051;-70
2021/06/29 04:05:17;;;;;;;4.00;3.60;;;;;;;16.18;100.00;99758.13;4977229;28;20051;-71
2021/06/29 04:07:46;;;;;;;4.15;3.47;;;;;;;16.18;100.00;99758.97;4978122;28;20066;-71
2021/06/29 04:10:14;;;;;;;4.60;3.70;;;;;;;16.15;100.00;99764.63;4978372;28;20449;-70
2021/06/29 04:12:41;;;;;;;3.60;3.30;;;;;;;16.14;100.00;99749.47;4978460;28;20058;-70
2021/06/29 04:15:08;;;;;;;5.63;3.05;;;;;;;16.10;100.00;99743.53;4978214;28;20061;-71
2021/06/29 04:17:36;;;;;;;3.70;3.10;;;;;;;16.16;100.00;99750.19;4978209;28;20429;-70
2021/06/29 04:20:07;;;;;;;3.78;2.92;;;;;;;16.21;100.00;99749.75;4985717;28;20046;-70
2021/06/29 04:22:34;;;;;;;4.43;3.47;;;;;;;16.21;100.00;99747.06;4996397;28;20058;-70
2021/06/29 04:25:02;;;;;;;3.95;3.25;;;;;;;16.25;100.00;99751.19;4997550;28;20053;-70
2021/06/29 04:27:29;;;;;;;3.28;2.97;;;;;;;16.24;100.00;99758.41;4997678;28;20046;-72
2021/06/29 04:29:56;;;;;;;4.63;3.17;;;;;;;16.27;100.00;99754.56;4996202;28;20117;-71
2021/06/29 04:32:23;;;;;;;3.30;3.00;;;;;;;16.24;100.00;99758.41;4997117;28;20054;-70
2021/06/29 04:34:50;;;;;;;3.20;3.00;;;;;;;16.23;100.00;99753.19;4997149;28;20508;-70
2021/06/29 04:37:16;;;;;;;5.18;3.10;;;;;;;16.30;100.00;99759.69;4997485;28;20368;-72
2021/06/29 04:39:44;;;;;;;5.15;2.78;;;;;;;16.24;100.00;99758.41;4997277;28;20317;-72
2021/06/29 04:42:11;;;;;;;2.75;2.55;;;;;;;16.29;100.00;99769.59;4997003;28;20136;-72
2021/06/29 04:44:39;;;;;;;2.97;2.67;;;;;;;16.29;100.00;99768.78;4996967;28;20050;-69
2021/06/29 04:47:07;;;;;;;3.50;2.78;;;;;;;16.32;100.00;99768.47;4996927;28;20109;-71
2021/06/29 04:49:35;;;;;;;3.78;2.40;;;;;;;16.29;100.00;99766.09;4997019;28;20054;-71
2021/06/29 04:52:02;;;;;;;2.63;2.00;;;;;;;16.23;100.00;99762.09;4996782;28;20051;-70
2021/06/29 04:54:28;;;;;;;4.28;2.10;;;;;;;16.31;100.00;99764.09;4996909;28;20054;-71
2021/06/29 04:56:55;;;;;;;4.22;2.38;;;;;;;16.33;100.00;99758.56;4996815;28;20051;-70
2021/06/29 04:59:22;;;;;;;8.05;2.30;;;;;;;16.36;100.00;99759.13;4995511;28;20089;-70
2021/06/29 05:01:48;;;;;;;3.08;2.00;;;;;;;16.45;100.00;99756.59;4995972;28;20104;-71
2021/06/29 05:04:15;;;;;;;2.20;1.50;;;;;;;16.37;100.00;99765.34;4995478;28;20073;-67
2021/06/29 05:06:42;;;;;;;2.05;1.85;;;;;;;16.39;100.00;99758.84;4996618;28;20359;-69
2021/06/29 05:09:08;;;;;;;4.50;1.75;;;;;;;16.43;100.00;99760.28;4996841;28;20050;-69
2021/06/29 05:11:36;;;;;;;2.40;1.60;;;;;;;16.47;100.00;99758.16;4995789;28;20075;-69
2021/06/29 05:14:03;;;;;;;3.65;1.95;;;;;;;16.41;100.00;99759.53;4995268;28;20062;-69
2021/06/29 05:16:30;;;;;;;2.45;1.60;;;;;;;16.41;100.00;99764.09;4996468;28;20097;-69
2021/06/29 05:18:57;;;;;;;2.53;1.40;;;;;;;16.35;100.00;99775.44;4994463;28;20077;-71
2021/06/29 05:21:23;;;;;;;1.60;1.17;;;;;;;16.27;100.00;99768.03;4986063;28;20038;-71
2021/06/29 05:23:50;;;;;;;7.45;1.42;;;;;;;16.33;100.00;99778.25;4986106;28;20058;-70
2021/06/29 05:26:17;;;;;;;5.25;1.42;;;;;;;16.36;100.00;99782.50;4985746;28;20046;-71
2021/06/29 05:28:44;;;;;;;4.22;1.60;;;;;;;16.37;100.00;99782.38;4987341;28;20050;-70
2021/06/29 05:31:11;;;;;;;1.75;1.20;;;;;;;16.42;100.00;99792.72;4986012;28;20038;-70
2021/06/29 05:33:38;;;;;;;1.88;1.30;;;;;;;16.40;100.00;99792.03;4985271;28;20050;-72
2021/06/29 05:36:05;;;;;;;2.95;1.00;;;;;;;16.41;100.00;99796.41;4987238;28;20046;-69
2021/06/29 05:38:32;;;;;;;3.03;1.50;;;;;;;16.43;100.00;99799.81;4985099;28;20059;-69
2021/06/29 05:40:59;;;;;;;6.93;1.42;;;;;;;16.50;100.00;99790.16;4984032;28;20096;-70
2021/06/29 05:43:26;;;;;;;1.67;0.90;;;;;;;16.47;100.00;99795.00;4986764;28;20100;-69
2021/06/29 05:45:52;;;;;;;4.25;0.93;;;;;;;16.34;100.00;99801.50;4986025;28;20078;-70
2021/06/29 05:48:19;;;;;;;2.70;1.20;;;;;;;16.40;100.00;99789.34;4984930;28;20046;-73
2021/06/29 05:50:46;;;;;;;3.78;1.15;;;;;;;16.44;100.00;99793.44;4984899;28;20062;-73
2021/06/29 05:53:13;;;;;;;4.25;1.10;;;;;;;16.39;100.00;99795.69;4984904;28;20109;-75
2021/06/29 05:55:40;;;;;;;1.65;0.95;;;;;;;16.34;100.00;99789.91;4986816;28;20054;-74
2021/06/29 05:58:13;;;;;;;2.00;0.85;;;;;;;16.21;100.00;99790.13;4985770;28;20433;-72
2021/06/29 06:00:39;;;;;;;2.88;0.73;;;;;;;16.26;100.00;99790.59;4985000;28;20200;-73
2021/06/29 06:03:06;;;;;;;1.50;0.70;;;;;;;16.21;100.00;99791.00;4986715;28;20502;-72
2021/06/29 06:05:33;;;;;;;2.80;1.15;;;;;;;16.21;100.00;99790.13;4985866;28;20093;-67
2021/06/29 06:07:59;;;;;;;2.75;1.00;;;;;;;16.24;100.00;99796.09;4984377;28;20060;-69
2021/06/29 06:10:26;;;;;;;4.85;1.08;;;;;;;16.02;100.00;99767.59;4984551;28;20054;-76
2021/06/29 06:12:53;;;;;;;2.35;0.85;;;;;;;16.25;100.00;99797.78;4993342;28;20050;-72
2021/06/29 06:15:20;;;;;;;2.13;0.70;;;;;;;16.32;100.00;99791.84;4994869;28;20400;-71
2021/06/29 06:17:47;;;;;;;5.13;0.80;;;;;;;16.34;100.00;99795.28;4994219;28;20379;-70
2021/06/29 06:20:13;;;;;;;2.42;1.00;;;;;;;16.32;100.00;99787.34;4985815;28;20055;-71
2021/06/29 06:22:40;;;;;;;2.65;1.10;;;;;;;16.29;100.00;99782.25;4976697;28;20433;-71
2021/06/29 06:25:08;;;;;;;2.08;0.90;;;;;;;16.41;100.00;99794.56;4979830;28;20054;-71
2021/06/29 06:27:35;;;;;;;2.70;1.00;;;;;;;16.46;100.00;99790.59;4979799;28;20054;-70
2021/06/29 06:30:03;;;;;;;2.60;0.93;;;;;;;16.46;100.00;99790.59;4979950;28;20090;-70
2021/06/29 06:32:30;;;;;;;5.50;1.20;;;;;;;16.56;100.00;99794.13;4979825;28;20046;-70
2021/06/29 06:34:57;;;;;;;5.97;0.90;;;;;;;16.60;100.00;99786.66;4979818;28;20503;-71
2021/06/29 06:37:24;;;;;;;4.82;0.85;;;;;;;16.64;100.00;99786.22;4979832;28;20062;-71
2021/06/29 06:39:50;;;;;;;3.72;0.90;;;;;;;16.73;100.00;99791.72;4978804;28;20142;-70
2021/06/29 06:42:17;;;;;;;3.90;1.10;;;;;;;16.79;100.00;99788.47;4978337;28;20051;-70
2021/06/29 06:44:44;;;;;;;0.60;0.60;;;;;;;16.77;99.75;99785.91;4978159;28;20081;-69
2021/06/29 06:47:10;;;;;;;0.73;0.70;;;;;;;16.76;99.92;99783.34;4978290;28;20055;-71
2021/06/29 06:49:37;;;;;;;2.08;0.80;;;;;;;16.77;99.37;99782.38;4979089;28;20105;-71
2021/06/29 06:52:04;;;;;;;6.03;0.75;;;;;;;16.74;99.71;99774.56;4978890;28;20100;-71
2021/06/29 06:54:31;;;;;;;7.65;0.90;;;;;;;16.72;100.00;99771.16;4979815;28;20067;-70
2021/06/29 06:56:57;;;;;;;2.33;0.80;;;;;;;16.66;100.00;99762.66;4980116;28;20051;-71
2021/06/29 06:59:24;;;;;;;1.92;0.90;;;;;;;16.65;99.62;99760.09;4980794;28;20105;-71
2021/06/29 07:01:50;;;;;;;1.58;0.60;;;;;;;16.60;98.02;99757.84;4980378;28;20054;-71
2021/06/29 07:04:19;;;;;;;2.30;0.80;;;;;;;16.39;99.55;99729.22;4979377;28;20065;-71
2021/06/29 07:06:46;;;;;;;2.42;0.77;;;;;;;16.47;100.00;99754.59;4979161;28;20450;-70
2021/06/29 07:09:15;;;;;;;3.63;0.85;;;;;;;16.47;100.00;99751.91;4978479;28;20059;-71
2021/06/29 07:11:49;;;;;;;4.10;0.90;;;;;;;16.52;100.00;99752.31;4979109;28;20336;-70
2021/06/29 07:14:17;;;;;;;4.25;0.80;;;;;;;16.60;100.00;99757.84;4979308;28;20047;-71
2021/06/29 07:16:44;;;;;;;1.27;0.60;;;;;;;16.67;100.00;99750.88;4978138;28;20058;-71
2021/06/29 07:19:12;;;;;;;3.38;0.70;;;;;;;16.69;100.00;99740.81;4979499;28;20055;-71
2021/06/29 07:21:39;;;;;;;1.20;0.50;;;;;;;16.83;98.91;99753.00;4998790;28;20053;-69
2021/06/29 07:24:06;;;;;;;1.17;0.60;;;;;;;16.91;98.38;99757.66;4997711;28;20062;-71
2021/06/29 07:26:33;;;;;;;3.58;0.80;;;;;;;16.95;99.15;99763.63;4997304;28;20057;-70
2021/06/29 07:29:01;;;;;;;4.38;0.70;;;;;;;16.97;99.76;99751.69;4998155;28;20112;-71
2021/06/29 07:31:27;;;;;;;1.20;0.70;;;;;;;17.02;98.23;99755.81;4998152;28;20483;-71
2021/06/29 07:33:54;;;;;;;3.67;0.77;;;;;;;17.09;98.33;99754.25;4997890;28;20058;-71
2021/06/29 07:36:21;;;;;;;1.63;0.77;;;;;;;17.14;98.63;99751.97;4998496;28;20050;-70
2021/06/29 07:38:48;;;;;;;5.43;0.85;;;;;;;17.14;95.66;99759.19;4998509;28;20058;-71
2021/06/29 07:41:15;;;;;;;2.25;0.63;;;;;;;17.19;95.20;99746.97;4998128;28;20101;-70
2021/06/29 07:43:42;;;;;;;1.60;0.73;;;;;;;17.22;94.98;99753.94;4998200;28;20050;-70
2021/06/29 07:46:09;;;;;;;2.92;0.95;;;;;;;17.32;94.84;99745.81;4998000;28;20054;-71
2021/06/29 07:48:36;;;;;;;1.67;0.63;;;;;;;17.33;95.43;99745.63;4998131;28;20054;-70
2021/06/29 07:51:06;;;;;;;2.08;0.63;;;;;;;17.42;93.36;99749.31;4997813;28;20050;-70
2021/06/29 07:53:33;;;;;;;1.73;0.60;;;;;;;17.55;92.70;99757.06;4997975;28;20054;-70
2021/06/29 07:56:02;;;;;;;1.42;0.70;;;;;;;17.59;91.57;99747.66;4997827;28;20097;-72
2021/06/29 07:58:29;;;;;;;3.20;0.63;;;;;;;17.59;90.85;99744.13;4997786;28;20057;-71
2021/06/29 08:00:56;;;;;;;4.72;0.68;;;;;;;17.70;90.67;99756.56;4997744;28;20112;-70
2021/06/29 08:03:23;;;;;;;3.60;0.70;;;;;;;17.81;91.43;99744.72;4997825;28;20054;-70
2021/06/29 08:05:52;;;;;;;0.93;0.50;;;;;;;17.81;88.55;99747.41;4997759;28;20058;-71
2021/06/29 08:08:18;;;;;;;1.20;0.80;;;;;;;17.84;88.91;99749.78;4996494;28;20108;-72
2021/06/29 08:10:46;;;;;;;3.60;0.68;;;;;;;17.81;89.43;99750.13;4997857;28;20156;-72
2021/06/29 08:13:13;;;;;;;2.40;0.85;;;;;;;17.93;91.84;99748.91;4997725;28;20050;-71
2021/06/29 08:15:40;;;;;;;1.00;0.60;;;;;;;18.07;92.29;99746.72;4997682;28;20137;-70
2021/06/29 08:18:08;;;;;;;2.40;0.75;;;;;;;18.22;90.21;99738.91;4996819;28;20100;-72
2021/06/29 08:20:35;;;;;;;1.10;0.70;;;;;;;18.43;90.99;99742.16;4986126;28;20433;-70
2021/06/29 08:23:02;;;;;;;1.02;0.80;;;;;;;18.54;87.48;99756.44;4977364;28;20051;-71
2021/06/29 08:25:29;;;;;;;2.25;0.98;;;;;;;18.69;87.38;99754.88;4978338;28;20125;-70
2021/06/29 08:27:56;;;;;;;1.98;0.95;;;;;;;18.63;86.22;99752.78;4977984;28;20345;-71
2021/06/29 08:30:23;;;;;;;1.92;1.02;;;;;;;18.65;87.40;99745.38;4978602;28;20058;-71
2021/06/29 08:32:50;;;;;;;3.42;1.02;;;;;;;18.68;88.67;99752.34;4960706;28;20043;-71
2021/06/29 08:35:17;;;;;;;2.50;1.05;;;;;;;18.75;86.77;99752.53;4977997;28;20062;-71
2021/06/29 08:37:50;;;;;;;3.42;1.02;;;;;;;18.72;87.25;99753.69;4976959;28;20050;-71
2021/06/29 08:40:17;;;;;;;2.25;1.10;;;;;;;18.76;89.80;99755.09;4976865;28;20051;-71
2021/06/29 08:42:44;;;;;;;3.92;1.13;;;;;;;18.72;86.15;99754.56;4977614;28;20591;-71
2021/06/29 08:45:14;;;;;;;6.68;1.30;;;;;;;18.71;85.64;99747.47;4976344;28;20058;-71
2021/06/29 08:47:41;;;;;;;4.13;1.20;;;;;;;18.62;83.44;99742.16;4976992;28;20055;-71
2021/06/29 08:50:11;;;;;;;1.45;0.80;;;;;;;18.63;87.21;99739.28;4977783;28;20128;-71
2021/06/29 08:52:38;;;;;;;3.63;1.02;;;;;;;18.67;87.51;99740.66;4977367;28;20421;-70
2021/06/29 08:55:07;;;;;;;3.65;1.40;;;;;;;18.79;88.07;99735.84;4977399;28;20054;-71
2021/06/29 08:57:34;;;;;;;2.85;1.35;;;;;;;18.89;86.33;99737.63;4976226;28;20448;-71
2021/06/29 09:00:01;;;;;;;3.75;0.95;;;;;;;19.05;86.77;99735.03;4976345;28;20433;-71
2021/06/29 09:02:29;;;;;;;3.47;1.23;;;;;;;19.02;86.79;99726.38;4976163;28;20050;-70
2021/06/29 09:04:59;;;;;;;5.60;1.13;;;;;;;19.10;85.88;99735.41;4977287;28;20095;-71
2021/06/29 09:07:28;;;;;;;5.60;1.07;;;;;;;19.11;84.80;99730.84;4976876;28;20109;-71
2021/06/29 09:10:03;;;;;;;1.77;0.80;;;;;;;19.21;86.24;99725.31;4977184;28;20368;-71
2021/06/29 09:12:52;;;;;;;2.78;0.80;;;;;;;19.42;85.70;99724.91;4977080;28;20050;-72
2021/06/29 09:15:32;;;;;;;1.58;1.00;;;;;;;19.50;82.75;99721.41;4977151;28;20057;-71
2021/06/29 09:18:05;;;;;;;4.72;0.93;;;;;;;19.57;87.10;99722.44;4977285;28;20113;-71
2021/06/29 09:20:33;;;;;;;2.17;1.00;;;;;;;19.62;86.45;99722.78;4988036;28;20101;-73
2021/06/29 09:23:10;;;;;;;1.92;1.10;;;;;;;19.66;84.43;99710.63;4996807;28;20391;-74
2021/06/29 09:25:38;;;;;;;4.43;1.25;;;;;;;19.70;84.33;99715.72;4996536;28;20046;-72
2021/06/29 09:28:06;;;;;;;3.63;1.10;;;;;;;19.78;82.29;99704.91;4995957;28;20101;-73
2021/06/29 09:30:41;;;;;;;3.75;0.90;;;;;;;19.82;82.58;99711.69;4995443;28;20066;-73
2021/06/29 09:33:41;;;;;;;3.47;0.88;;;;;;;19.86;80.83;99720.31;4996384;28;20042;-73
2021/06/29 09:36:13;;;;;;;2.97;0.70;;;;;;;20.02;80.78;99727.69;4995546;28;20054;-73
2021/06/29 09:38:41;;;;;;;7.38;0.90;;;;;;;20.16;82.94;99724.31;4996060;28;20085;-73
2021/06/29 09:41:11;;;;;;;1.40;0.70;;;;;;;20.28;80.97;99729.41;4996330;28;20058;-74
2021/06/29 09:43:40;;;;;;;2.60;0.80;;;;;;;20.21;78.62;99730.06;4996351;28;20053;-73
2021/06/29 09:46:10;;;;;;;2.70;0.93;;;;;;;20.38;80.26;99731.97;4996025;28;20046;-73
2021/06/29 09:48:46;;;;;;;2.23;0.90;;;;;;;20.49;79.94;99727.03;4996172;28;20058;-73
2021/06/29 09:51:34;;;;;;;2.28;0.80;;;;;;;20.62;79.20;99728.41;4995698;28;20344;-72
2021/06/29 09:54:07;;;;;;;2.47;0.70;;;;;;;20.70;79.09;99733.81;4995910;28;20054;-75
2021/06/29 09:56:44;;;;;;;2.97;1.20;;;;;;;20.78;77.77;99727.53;4996102;28;20053;-73
2021/06/29 09:59:16;;;;;;;3.03;1.20;;;;;;;20.70;73.78;99736.53;4995654;28;20100;-72
2021/06/29 10:01:44;;;;;;;3.80;0.90;;;;;;;20.73;75.33;99725.34;4995874;28;20428;-74
2021/06/29 10:04:11;;;;;;;2.15;1.13;;;;;;;20.86;73.92;99735.69;4995811;28;20054;-74
2021/06/29 10:06:39;;;;;;;1.90;1.13;;;;;;;20.89;73.75;99727.25;4995634;28;20424;-74
2021/06/29 10:09:16;;;;;;;1.80;0.85;;;;;;;20.97;75.59;99739.09;4995512;28;20510;-81
2021/06/29 10:11:54;;;;;;;2.90;1.15;;;;;;;21.04;75.95;99726.53;4995916;28;20046;-73
2021/06/29 10:14:22;;;;;;;4.28;1.50;;;;;;;21.02;73.90;99721.25;4995763;28;20054;-74
2021/06/29 10:16:55;;;;;;;2.85;1.48;;;;;;;21.09;73.73;99726.81;4995645;28;20104;-74
2021/06/29 10:20:37;;;;;;;1.90;1.20;;;;;;;21.17;74.86;99721.41;4994471;28;20177;-73
2021/06/29 10:22:22;;;;;;;7.43;1.45;;;;;;;21.27;77.26;99726.63;4979575;28;20051;-74
2021/06/29 10:24:49;;;;;;;4.10;1.20;;;;;;;21.36;74.68;99723.88;4975272;28;20054;-75
2021/06/29 10:27:18;;;;;;;6.78;2.40;;;;;;;21.53;70.79;99722.78;4976427;28;20051;-74
2021/06/29 10:29:45;;;;;;;4.10;1.95;;;;;;;21.61;72.54;99727.34;4974879;28;20050;-76
2021/06/29 10:32:13;;;;;;;3.00;1.55;;;;;;;21.88;70.98;99716.19;4976314;28;20476;-76
2021/06/29 10:34:40;;;;;;;8.73;2.05;;;;;;;21.94;72.10;99710.91;4976260;28;20050;-75
2021/06/29 10:37:08;;;;;;;2.25;1.30;;;;;;;22.01;66.57;99707.47;4976321;28;20066;-75
2021/06/29 10:39:36;;;;;;;2.42;1.27;;;;;;;22.14;66.13;99699.56;4975942;28;20061;-74
2021/06/29 10:42:13;;;;;;;3.08;0.90;;;;;;;22.18;70.15;99689.16;4975084;28;20051;-74
2021/06/29 10:44:51;;;;;;;9.40;3.47;;;;;;;22.24;68.80;99678.41;4975916;28;20058;-76
2021/06/29 10:47:32;;;;;;;5.80;1.63;;;;;;;22.24;70.03;99685.72;4976013;28;20058;-75
2021/06/29 10:50:07;;;;;;;3.30;1.90;;;;;;;22.38;68.06;99684.06;4976182;28;20066;-76
2021/06/29 10:52:37;;;;;;;4.05;1.08;;;;;;;22.30;71.54;99674.13;4975914;28;20047;-73
2021/06/29 10:55:22;;;;;;;2.50;1.17;;;;;;;22.34;69.28;99678.16;4976097;28;20139;-76
2021/06/29 10:57:59;;;;;;;1.50;1.13;;;;;;;22.52;67.05;99687.91;4975769;28;20079;-76
2021/06/29 11:00:33;;;;;;;4.00;1.08;;;;;;;22.65;69.03;99685.41;4974695;28;20110;-77
2021/06/29 11:03:04;;;;;;;3.72;1.20;;;;;;;22.61;64.36;99675.06;4976218;28;20052;-76
2021/06/29 11:05:40;;;;;;;7.95;2.92;;;;;;;22.65;67.01;99682.69;4975757;28;20058;-75
2021/06/29 11:08:15;;;;;;;6.65;2.58;;;;;;;22.89;64.28;99683.44;4975476;28;20141;-73
2021/06/29 11:10:49;;;;;;;1.45;0.80;;;;;;;23.17;61.78;99681.97;4978604;28;20055;-75
2021/06/29 11:13:19;;;;;;;3.05;1.27;;;;;;;23.35;62.45;99686.22;4979512;28;20047;-75
2021/06/29 11:15:53;;;;;;;1.60;0.70;;;;;;;23.36;62.10;99686.00;4979400;28;20134;-74
2021/06/29 11:18:46;;;;;;;4.07;1.30;;;;;;;23.40;62.79;99692.78;4979310;28;20051;-76
2021/06/29 11:21:19;;;;;;;3.20;0.70;;;;;;;23.66;60.71;99690.56;4994543;28;20050;-75
2021/06/29 11:23:46;;;;;;;7.25;2.88;;;;;;;23.74;61.76;99693.16;4997663;28;20085;-74
2021/06/29 11:26:12;;;;;;;7.28;2.20;;;;;;;23.84;59.12;99680.09;4998504;28;20206;-74
2021/06/29 11:29:05;;;;;;;1.30;0.80;;;;;;;24.08;62.30;99688.13;4998376;28;20081;-75
2021/06/29 11:31:33;;;;;;;2.65;0.85;;;;;;;24.22;60.70;99689.94;4998769;28;20058;-74
2021/06/29 11:34:04;;;;;;;6.13;2.38;;;;;;;24.36;59.53;99676.44;4998648;28;20057;-75
2021/06/29 11:36:32;;;;;;;;;;;;;;;24.39;60.50;99679.59;4998998;28;20054;-75
2021/06/29 11:39:00;;;;;;;3.15;1.50;;;;;;;24.54;61.49;99681.41;4998781;28;19949;-76
2021/06/29 11:41:28;;;;;;;2.38;1.23;;;;;;;24.60;57.43;99682.47;4998471;28;20050;-79